Jet, OK

5:23 PM CST on January 30, 2015 (GMT -0600)
Amateur Radio W5PDB | Change Station
CLOSE
Current Station
Personal Weather Station
Location: Jet, OK
Elevation: 1280 ft
Nearby Weather Stations

Elev 1280 ft 36.67 °N, 98.18 °W | Updated 1 minute ago

Mostly Cloudy
Mostly Cloudy
43.0 °F
Feels Like 43 °F
N
0.0
Wind Variable Wind from ENE
Gusts 3.0 mph

Today
High -- | Low -- °F
--% Chance of Precip.
Yesterday
High -- | Low -- °F
Precip. -- in
7:36 AM 5:55 PM
Waxing Gibbous, 85% visible
Pressure 30.39 in
Visibility 10.0 miles
Clouds Scattered Clouds 9500 ft
Mostly Cloudy 13000 ft
Overcast 20000 ft
Windchill 43 °F
Dew Point 5 °F
Humidity 20%
Rainfall 0.00 in
Snow Depth Not available.
UV 0 out of 12
Pollen .10 out of 12
Air Quality Not available.
Flu Activity Not available.
METAR KEND 302256Z 09006KT 10SM SCT095 BKN130 OVC200 06/M04 A3036 RMK AO2A SLP291

More Conditions Fewer Conditions

Pressure 30.39 in
Visibility 10.0 miles
Clouds Scattered Clouds 9500 ft
Mostly Cloudy 13000 ft
Overcast 20000 ft
Windchill 43 °F
Dew Point 5 °F
Humidity 20%
Rainfall 0.00 in
Snow Depth Not available.
UV 0 out of 12
Pollen .10 out of 12
Air Quality Not available.
Flu Activity Not available.
METAR KEND 302256Z 09006KT 10SM SCT095 BKN130 OVC200 06/M04 A3036 RMK AO2A SLP291

More Conditions Fewer Conditions

10-Day Weather Forecast

Almanac

Astronomy

Jan. 30, 2015 Rise Set
Actual Time
Civil Twilight
Nautical Twilight
Astronomical Twilight
Moon
Length of Visible Light
Length of Day
Tomorrow will be .
, % of the Moon is Illuminated

Today's Extremes

State Highs State Lows

Community

WunderPhotos

Upload Photos

1,791,923 photos uploaded!

WunderBlogs® & News

Nearby

Air Quality

  Air Quality AQ Index Pollutant
Not available.

Snow Depth

Station Depth Elevation

Earthquake Activity

City Distance Mag. Time & Date
Minimum magnitude displayed is 2.5.

Coastal Water Temperatures

Place Temperature

Nearby Weather Stations